Cbeh — BOHM — position and weather

sailwx.info

Track history (hours):
 
Tides and Currents Weather Stations Pressure Air Temp Water Temp Dewpoint Dewpoint Depression Visibility Wind Speed Wind Dir Waves Ship Positions

Cbeh

Last reported at 2017-Nov-18 15:09 UTC. Time now 2017-Nov-21 19:24 UTC.
Position N 38°32' E 121°23'.

Length 222 m; draft 5.4 m.

Type: Wing in ground effect craft. MMSI: 412228000.

Date/timePositionNaut miles runAvg speedWind from/ knotsBaromVisibWave heightAir tempDewpointWater temp
2017-Nov-18 15:09N 38°32' E 121°23'318.2
2017-Nov-18 14:58N 38°33' E 121°27'818.3
2017-Nov-18 14:31N 38°33' E 121°37'917.6
2017-Nov-18 14:01N 38°39' E 121°45'918.3
2017-Nov-18 13:30N 38°47' E 121°51'8 1.3
2017-Nov-18 07:09N 38°54' E 121°57'212.6
2017-Nov-18 07:00N 38°52' E 121°58'4 6.8
2017-Nov-18 06:29N 38°49' E 122°01'0 0.1
2017-Nov-18 05:59N 38°49' E 122°01'0 0.1
2017-Nov-18 05:26N 38°49' E 122°01'0 0.1
2017-Nov-18 04:59N 38°49' E 122°00'0 0.1
2017-Nov-18 04:29N 38°49' E 122°01'0 0.1
2017-Nov-18 03:56N 38°49' E 122°00'0 0.2
2017-Nov-18 03:29N 38°49' E 122°00'0 0.2
2017-Nov-18 02:53N 38°49' E 122°00'0 0.0
2017-Nov-18 02:29N 38°49' E 122°00'0 0.0
2017-Nov-18 01:59N 38°49' E 122°00'0 0.1
2017-Nov-18 01:26N 38°49' E 122°00'0 0.0
2017-Nov-18 00:56N 38°49' E 122°00'0 0.0
2017-Nov-18 00:29N 38°49' E 122°00'0 0.1
2017-Nov-17 23:59N 38°49' E 122°00'0 0.1
2017-Nov-17 23:29N 38°49' E 122°00'0 0.1
2017-Nov-17 22:56N 38°49' E 122°00'0 0.1
2017-Nov-17 22:29N 38°49' E 122°00'0 0.0
2017-Nov-17 21:59N 38°49' E 122°00'0 0.0
2017-Nov-17 21:29N 38°49' E 122°00'0 0.0
2017-Nov-17 20:59N 38°49' E 122°00'0 0.0
2017-Nov-17 20:29N 38°49' E 122°00'0 0.0
2017-Nov-17 19:59N 38°49' E 122°00'0 0.0
2017-Nov-17 19:29N 38°49' E 122°00'0 0.0
2017-Nov-17 18:59N 38°49' E 122°00'0 0.1
2017-Nov-17 18:29N 38°49' E 122°00'0 0.1
2017-Nov-17 17:59N 38°49' E 122°00'0 0.1
2017-Nov-17 17:29N 38°49' E 122°00'0 0.2
2017-Nov-17 16:59N 38°49' E 122°00'0 0.4
2017-Nov-17 16:29N 38°49' E 122°00'0 0.3
2017-Nov-17 15:59N 38°50' E 122°00'0 0.1
2017-Nov-17 15:29N 38°50' E 122°00'0 0.0
2017-Nov-17 14:59N 38°50' E 122°00'0 0.0
2017-Nov-17 14:29N 38°50' E 122°00'0 0.0
2017-Nov-17 13:59N 38°50' E 122°00'0 0.2
2017-Nov-17 13:26N 38°50' E 122°00'0 0.0
2017-Nov-17 12:14N 38°50' E 122°00'0 0.1
2017-Nov-17 11:50N 38°50' E 122°00'0 0.0
2017-Nov-17 09:08N 38°50' E 122°00'46511.9
2017-Nov-15 18:08N 31°05' E 122°24'314.0
2017-Nov-15 17:53N 31°06' E 122°21'913.4
2017-Nov-15 17:13N 31°10' E 122°11'313.9
2017-Nov-15 17:00N 31°12' E 122°09'713.6
2017-Nov-15 16:30N 31°15' E 122°01'611.2
2017-Nov-15 16:00N 31°16' E 121°55'612.5
2017-Nov-15 15:31N 31°17' E 121°48'510.7
2017-Nov-15 15:01N 31°19' E 121°42'3 5.6
2017-Nov-15 14:31N 31°21' E 121°39'0 0.5
2017-Nov-15 13:58N 31°21' E 121°39'0 0.0
2017-Nov-15 13:28N 31°21' E 121°39'0 0.0
2017-Nov-15 12:58N 31°21' E 121°39'0 0.0
2017-Nov-15 12:28N 31°21' E 121°39'0 0.0
2017-Nov-15 11:58N 31°21' E 121°39'0 0.0
2017-Nov-15 11:25N 31°21' E 121°39'0 0.0
2017-Nov-15 10:58N 31°21' E 121°39'0 0.0
2017-Nov-15 10:28N 31°21' E 121°39'0 0.0
2017-Nov-15 09:58N 31°21' E 121°39'0 0.0
2017-Nov-15 09:28N 31°21' E 121°39'0 0.0
2017-Nov-15 08:58N 31°21' E 121°39'0 0.0
2017-Nov-15 08:28N 31°21' E 121°39'0 0.0
2017-Nov-15 07:58N 31°21' E 121°39'0 0.0
2017-Nov-15 07:25N 31°21' E 121°39'0 0.0
2017-Nov-15 06:58N 31°21' E 121°39'0 0.0
2017-Nov-15 06:28N 31°21' E 121°39'0 0.0
2017-Nov-15 05:55N 31°21' E 121°39'0 0.0
2017-Nov-15 05:28N 31°21' E 121°39'0 0.0
2017-Nov-15 04:58N 31°21' E 121°39'0 0.0
2017-Nov-15 04:28N 31°21' E 121°39'0 0.0
2017-Nov-15 03:58N 31°21' E 121°39'0 0.0
2017-Nov-15 03:28N 31°21' E 121°39'0 0.0
2017-Nov-15 02:58N 31°21' E 121°39'0 0.0
2017-Nov-15 02:28N 31°21' E 121°39'0 0.0
2017-Nov-15 01:55N 31°21' E 121°39'0 0.0
2017-Nov-15 01:28N 31°21' E 121°39'0 0.0
2017-Nov-15 00:58N 31°21' E 121°39'0 0.0
2017-Nov-15 00:28N 31°21' E 121°39'0 0.0
2017-Nov-14 23:58N 31°21' E 121°39'0 0.0
2017-Nov-14 23:28N 31°21' E 121°39'0 0.0
2017-Nov-14 22:58N 31°21' E 121°39'0 0.0
2017-Nov-14 22:28N 31°21' E 121°39'0 0.0
2017-Nov-14 21:58N 31°21' E 121°39'0 0.0
2017-Nov-14 21:28N 31°21' E 121°39'0 0.0
2017-Nov-14 20:55N 31°21' E 121°39'0 0.0
2017-Nov-14 20:28N 31°21' E 121°39'0 0.0
2017-Nov-14 19:58N 31°21' E 121°39'0 0.0
2017-Nov-14 19:28N 31°21' E 121°39'0 0.0
2017-Nov-14 18:58N 31°21' E 121°39'0 0.0
2017-Nov-14 18:28N 31°21' E 121°39'0 0.0
2017-Nov-14 17:58N 31°21' E 121°39'0 0.0
2017-Nov-14 17:25N 31°21' E 121°39'0 0.0
2017-Nov-14 16:58N 31°21' E 121°39'0 0.0
2017-Nov-14 16:28N 31°21' E 121°39'0 0.0
2017-Nov-14 15:58N 31°21' E 121°39'0 0.0
2017-Nov-14 15:28N 31°21' E 121°39'0 0.0
2017-Nov-14 14:58N 31°21' E 121°39'0 0.0
2017-Nov-14 14:28N 31°21' E 121°39'0 0.3
2017-Nov-14 14:00N 31°21' E 121°39'1 1.5
2017-Nov-14 13:30N 31°21' E 121°39'5 9.2
2017-Nov-14 13:00N 31°19' E 121°44'510.6
2017-Nov-14 12:30N 31°17' E 121°49'612.2
2017-Nov-14 12:01N 31°15' E 121°56'612.6
2017-Nov-14 11:30N 31°14' E 122°03'611.2
2017-Nov-14 11:00N 31°12' E 122°09'7 9.2
2017-Nov-14 10:12N 31°07' E 122°16'312.1
2017-Nov-14 09:59N 31°06' E 122°19'45310.4
2017-Nov-12 14:33N 24°18' E 118°36'115.7
2017-Nov-12 14:30N 24°18' E 118°35'815.9
2017-Nov-12 14:00N 24°14' E 118°27'815.8
2017-Nov-12 13:30N 24°10' E 118°20'815.3
2017-Nov-12 13:00N 24°05' E 118°14'20214.8
2017-Nov-11 23:19N 22°14' E 115°10'915.0
2017-Nov-11 22:42N 22°11' E 115°00'315.1
2017-Nov-11 22:30N 22°10' E 114°57'714.9
2017-Nov-11 22:00N 22°08' E 114°50'814.8
2017-Nov-11 21:30N 22°05' E 114°42'814.7
2017-Nov-11 20:59N 22°03' E 114°34'714.9
2017-Nov-11 20:30N 21°60' E 114°27'1914.2
2017-Nov-11 19:09N 21°57' E 114°07'216.2
2017-Nov-11 19:00N 21°59' E 114°05'815.6
2017-Nov-11 18:30N 22°05' E 113°60'816.1
2017-Nov-11 18:00N 22°09' E 113°53'714.9
2017-Nov-11 17:30N 22°15' E 113°49'713.7
2017-Nov-11 17:00N 22°22' E 113°47'713.5
2017-Nov-11 16:31N 22°29' E 113°45'714.5
2017-Nov-11 16:00N 22°36' E 113°43'612.8
2017-Nov-11 15:30N 22°42' E 113°41'510.4
2017-Nov-11 15:00N 22°46' E 113°38'5 9.8
2017-Nov-11 14:30N 22°50' E 113°35'3 5.1
2017-Nov-11 14:00N 22°52' E 113°33'0 0.0
2017-Nov-11 13:30N 22°52' E 113°33'0 0.0
2017-Nov-11 13:00N 22°52' E 113°33'0 0.0
2017-Nov-11 12:30N 22°52' E 113°33'0 0.0
2017-Nov-11 11:59N 22°52' E 113°33'0 0.0
2017-Nov-11 11:30N 22°52' E 113°33'0 0.0
2017-Nov-11 10:59N 22°52' E 113°33'0 0.0
2017-Nov-11 10:29N 22°52' E 113°33'0 0.0
2017-Nov-11 10:00N 22°52' E 113°33'0 0.0
2017-Nov-11 09:29N 22°52' E 113°33'0 0.0
2017-Nov-11 09:00N 22°52' E 113°33'0 0.0
2017-Nov-11 08:30N 22°52' E 113°33'0 0.0
2017-Nov-11 07:59N 22°52' E 113°33'0 0.0
2017-Nov-11 07:30N 22°52' E 113°33'0 0.0
2017-Nov-11 07:00N 22°52' E 113°33'0 0.0
2017-Nov-11 06:30N 22°52' E 113°33'0 0.0
2017-Nov-11 05:59N 22°52' E 113°33'0 0.0
2017-Nov-11 05:30N 22°52' E 113°33'0 0.0
2017-Nov-11 04:59N 22°52' E 113°33'0 0.0
2017-Nov-11 04:30N 22°52' E 113°33'0 0.0
2017-Nov-11 03:59N 22°52' E 113°33'0 0.0
2017-Nov-11 03:29N 22°52' E 113°33'0 0.0
2017-Nov-11 02:59N 22°52' E 113°33'0 0.0
2017-Nov-11 02:29N 22°52' E 113°33'0 0.0
2017-Nov-11 01:59N 22°52' E 113°33'0 0.0
2017-Nov-11 01:29N 22°52' E 113°33'0 0.0
2017-Nov-11 00:59N 22°52' E 113°33'0 0.0
2017-Nov-11 00:29N 22°52' E 113°33'0 0.0
2017-Nov-10 23:59N 22°52' E 113°33'0 0.0
2017-Nov-10 23:29N 22°52' E 113°33'0 0.0
2017-Nov-10 22:59N 22°52' E 113°33'0 0.0
2017-Nov-10 22:30N 22°52' E 113°33'0 0.0
2017-Nov-10 21:59N 22°52' E 113°33'0 0.0
2017-Nov-10 21:29N 22°52' E 113°33'0 0.0
2017-Nov-10 20:59N 22°52' E 113°33'0 0.0
2017-Nov-10 20:29N 22°52' E 113°33'0 0.0
2017-Nov-10 19:59N 22°52' E 113°33'0 0.0
2017-Nov-10 19:29N 22°52' E 113°33'0 0.0
2017-Nov-10 18:59N 22°52' E 113°33'0 0.0
2017-Nov-10 18:29N 22°52' E 113°33'0 0.0
2017-Nov-10 17:59N 22°52' E 113°33'0 0.0
2017-Nov-10 17:29N 22°52' E 113°33'0 0.0
2017-Nov-10 16:59N 22°52' E 113°33'0 0.0
2017-Nov-10 16:29N 22°52' E 113°33'0 0.0
2017-Nov-10 15:59N 22°52' E 113°33'0 0.0
2017-Nov-10 15:29N 22°52' E 113°33'0 0.0
2017-Nov-10 14:59N 22°52' E 113°33'0 0.0
2017-Nov-10 14:29N 22°52' E 113°33'0 0.0
2017-Nov-10 13:59N 22°52' E 113°33'0 0.0
2017-Nov-10 13:29N 22°52' E 113°33'0 0.0
2017-Nov-10 12:59N 22°52' E 113°33'0 0.0
2017-Nov-10 12:29N 22°52' E 113°33'0 0.0
2017-Nov-10 11:59N 22°52' E 113°33'0 0.0
2017-Nov-10 11:29N 22°52' E 113°33'0 0.0
2017-Nov-10 11:00N 22°52' E 113°33'0 0.0
2017-Nov-10 10:23N 22°52' E 113°33'0 0.0
2017-Nov-10 09:59N 22°52' E 113°33'0 0.0
2017-Nov-10 09:29N 22°52' E 113°33'0 0.0
2017-Nov-10 08:59N 22°52' E 113°33'0 0.0
2017-Nov-10 08:29N 22°52' E 113°33'0 0.0
2017-Nov-10 07:59N 22°52' E 113°33'0 0.0
2017-Nov-10 07:29N 22°52' E 113°33'0 0.0
2017-Nov-10 06:59N 22°52' E 113°33'0 0.0
2017-Nov-10 06:29N 22°52' E 113°33'0 0.0
2017-Nov-10 05:59N 22°52' E 113°33'0 0.0
2017-Nov-10 05:29N 22°52' E 113°33'0 0.0
2017-Nov-10 04:59N 22°52' E 113°33'0 0.0
2017-Nov-10 04:29N 22°52' E 113°33'0 0.0
2017-Nov-10 03:59N 22°52' E 113°33'0 0.0
2017-Nov-10 03:29N 22°52' E 113°33'0 0.0
2017-Nov-10 02:59N 22°52' E 113°33'0 0.0
2017-Nov-10 02:29N 22°52' E 113°33'0 0.0
2017-Nov-10 01:59N 22°52' E 113°33'0 0.0
2017-Nov-10 01:29N 22°52' E 113°33'0 0.0
2017-Nov-10 00:59N 22°52' E 113°33'0 0.0
2017-Nov-10 00:29N 22°52' E 113°33'0 0.0
2017-Nov-09 23:59N 22°52' E 113°33'0 0.0
2017-Nov-09 23:29N 22°52' E 113°33'0 0.0
2017-Nov-09 22:59N 22°52' E 113°33'0 0.0
2017-Nov-09 22:29N 22°52' E 113°33'0 0.0
2017-Nov-09 21:59N 22°52' E 113°33'0 0.0
2017-Nov-09 21:29N 22°52' E 113°33'0 0.0
2017-Nov-09 20:59N 22°52' E 113°33'0 0.0
2017-Nov-09 20:29N 22°52' E 113°33'0 0.0
2017-Nov-09 19:59N 22°52' E 113°33'0 0.0
2017-Nov-09 19:29N 22°52' E 113°33'0 0.0
2017-Nov-09 18:59N 22°52' E 113°33'0 0.0
2017-Nov-09 18:29N 22°52' E 113°33'0 0.0
2017-Nov-09 17:59N 22°52' E 113°33'0 0.0
2017-Nov-09 17:29N 22°52' E 113°33'0 0.0
2017-Nov-09 16:59N 22°52' E 113°33'0 0.3
2017-Nov-09 16:30N 22°52' E 113°33'1 1.8
2017-Nov-09 16:00N 22°52' E 113°34'1 2.6
2017-Nov-09 15:28N 22°53' E 113°35'1 2.4
2017-Nov-09 15:00N 22°54' E 113°35'0 0.0
2017-Nov-09 14:24N 22°54' E 113°35'0 0.0
2017-Nov-09 13:57N 22°54' E 113°35'0 0.0
2017-Nov-09 13:30N 22°54' E 113°35'0 0.0
2017-Nov-09 13:00N 22°54' E 113°35'0 0.0
2017-Nov-09 12:30N 22°54' E 113°35'0 0.0
2017-Nov-09 12:00N 22°54' E 113°35'2 3.1
2017-Nov-09 11:30N 22°53' E 113°34'4 7.3
2017-Nov-09 11:00N 22°50' E 113°35'5 9.8
2017-Nov-09 10:30N 22°46' E 113°38'510.3
2017-Nov-09 10:00N 22°41' E 113°41'612.5
2017-Nov-09 09:30N 22°35' E 113°43'714.4
2017-Nov-09 09:00N 22°28' E 113°45'611.3
2017-Nov-09 08:31N 22°23' E 113°47'714.4
2017-Nov-09 08:01N 22°16' E 113°49'815.3
2017-Nov-09 07:30N 22°09' E 113°53'714.1
2017-Nov-09 07:00N 22°05' E 113°59'0 0.1
2017-Nov-09 04:01N 22°05' E 113°59'0 0.0
2017-Nov-09 03:43N 22°05' E 113°59'0 0.0
2017-Nov-09 00:43N 22°05' E 113°59'0 0.1
2017-Nov-09 00:13N 22°05' E 113°59'0 0.1
2017-Nov-08 23:40N 22°05' E 113°59'0 0.1
2017-Nov-08 23:25N 22°05' E 113°59'0 0.0
2017-Nov-08 22:49N 22°05' E 113°59'0 0.1
2017-Nov-08 22:19N 22°05' E 113°59'0 0.1
2017-Nov-08 21:58N 22°05' E 113°59'0 0.0
2017-Nov-08 20:37N 22°05' E 113°59'0 0.1
2017-Nov-08 19:35N 22°05' E 113°59'0 0.2
2017-Nov-08 19:30N 22°05' E 113°59'0 0.0
2017-Nov-08 18:59N 22°05' E 113°59'0 0.1
2017-Nov-08 18:30N 22°05' E 113°59'0 0.1
2017-Nov-08 18:00N 22°05' E 113°59'0 0.1
2017-Nov-08 17:31N 22°05' E 113°59'0 0.2
2017-Nov-08 17:00N 22°05' E 113°59'0 0.4
2017-Nov-08 16:30N 22°05' E 113°59'4 8.6
2017-Nov-08 15:59N 22°02' E 114°03'714.8
2017-Nov-08 15:30N 21°57' E 114°07'  
Track history (hours):
 
Tides and Currents Weather Stations Pressure Air Temp Water Temp Dewpoint Dewpoint Depression Visibility Wind Speed Wind Dir Waves Ship Positions

Cbeh

Last reported at 2017-Nov-18 15:09 UTC. Time now 2017-Nov-21 19:24 UTC.
Position N 38°32' E 121°23'.

Length 222 m; draft 5.4 m.

Type: Wing in ground effect craft. MMSI: 412228000.

Date/timePositionNaut miles runAvg speedWind from/ knotsBaromVisibWave heightAir tempDewpointWater temp
2017-Nov-18 15:09N 38°32' E 121°23'318.2
2017-Nov-18 14:58N 38°33' E 121°27'818.3
2017-Nov-18 14:31N 38°33' E 121°37'917.6
2017-Nov-18 14:01N 38°39' E 121°45'918.3
2017-Nov-18 13:30N 38°47' E 121°51'8 1.3
2017-Nov-18 07:09N 38°54' E 121°57'212.6
2017-Nov-18 07:00N 38°52' E 121°58'4 6.8
2017-Nov-18 06:29N 38°49' E 122°01'0 0.1
2017-Nov-18 05:59N 38°49' E 122°01'0 0.1
2017-Nov-18 05:26N 38°49' E 122°01'0 0.1
2017-Nov-18 04:59N 38°49' E 122°00'0 0.1
2017-Nov-18 04:29N 38°49' E 122°01'0 0.1
2017-Nov-18 03:56N 38°49' E 122°00'0 0.2
2017-Nov-18 03:29N 38°49' E 122°00'0 0.2
2017-Nov-18 02:53N 38°49' E 122°00'0 0.0
2017-Nov-18 02:29N 38°49' E 122°00'0 0.0
2017-Nov-18 01:59N 38°49' E 122°00'0 0.1
2017-Nov-18 01:26N 38°49' E 122°00'0 0.0
2017-Nov-18 00:56N 38°49' E 122°00'0 0.0
2017-Nov-18 00:29N 38°49' E 122°00'0 0.1
2017-Nov-17 23:59N 38°49' E 122°00'0 0.1
2017-Nov-17 23:29N 38°49' E 122°00'0 0.1
2017-Nov-17 22:56N 38°49' E 122°00'0 0.1
2017-Nov-17 22:29N 38°49' E 122°00'0 0.0
2017-Nov-17 21:59N 38°49' E 122°00'0 0.0
2017-Nov-17 21:29N 38°49' E 122°00'0 0.0
2017-Nov-17 20:59N 38°49' E 122°00'0 0.0
2017-Nov-17 20:29N 38°49' E 122°00'0 0.0
2017-Nov-17 19:59N 38°49' E 122°00'0 0.0
2017-Nov-17 19:29N 38°49' E 122°00'0 0.0
2017-Nov-17 18:59N 38°49' E 122°00'0 0.1
2017-Nov-17 18:29N 38°49' E 122°00'0 0.1
2017-Nov-17 17:59N 38°49' E 122°00'0 0.1
2017-Nov-17 17:29N 38°49' E 122°00'0 0.2
2017-Nov-17 16:59N 38°49' E 122°00'0 0.4
2017-Nov-17 16:29N 38°49' E 122°00'0 0.3
2017-Nov-17 15:59N 38°50' E 122°00'0 0.1
2017-Nov-17 15:29N 38°50' E 122°00'0 0.0
2017-Nov-17 14:59N 38°50' E 122°00'0 0.0
2017-Nov-17 14:29N 38°50' E 122°00'0 0.0
2017-Nov-17 13:59N 38°50' E 122°00'0 0.2
2017-Nov-17 13:26N 38°50' E 122°00'0 0.0
2017-Nov-17 12:14N 38°50' E 122°00'0 0.1
2017-Nov-17 11:50N 38°50' E 122°00'0 0.0
2017-Nov-17 09:08N 38°50' E 122°00'46511.9
2017-Nov-15 18:08N 31°05' E 122°24'314.0
2017-Nov-15 17:53N 31°06' E 122°21'913.4
2017-Nov-15 17:13N 31°10' E 122°11'313.9
2017-Nov-15 17:00N 31°12' E 122°09'713.6
2017-Nov-15 16:30N 31°15' E 122°01'611.2
2017-Nov-15 16:00N 31°16' E 121°55'612.5
2017-Nov-15 15:31N 31°17' E 121°48'510.7
2017-Nov-15 15:01N 31°19' E 121°42'3 5.6
2017-Nov-15 14:31N 31°21' E 121°39'0 0.5
2017-Nov-15 13:58N 31°21' E 121°39'0 0.0
2017-Nov-15 13:28N 31°21' E 121°39'0 0.0
2017-Nov-15 12:58N 31°21' E 121°39'0 0.0
2017-Nov-15 12:28N 31°21' E 121°39'0 0.0
2017-Nov-15 11:58N 31°21' E 121°39'0 0.0
2017-Nov-15 11:25N 31°21' E 121°39'0 0.0
2017-Nov-15 10:58N 31°21' E 121°39'0 0.0
2017-Nov-15 10:28N 31°21' E 121°39'0 0.0
2017-Nov-15 09:58N 31°21' E 121°39'0 0.0
2017-Nov-15 09:28N 31°21' E 121°39'0 0.0
2017-Nov-15 08:58N 31°21' E 121°39'0 0.0
2017-Nov-15 08:28N 31°21' E 121°39'0 0.0
2017-Nov-15 07:58N 31°21' E 121°39'0 0.0
2017-Nov-15 07:25N 31°21' E 121°39'0 0.0
2017-Nov-15 06:58N 31°21' E 121°39'0 0.0
2017-Nov-15 06:28N 31°21' E 121°39'0 0.0
2017-Nov-15 05:55N 31°21' E 121°39'0 0.0
2017-Nov-15 05:28N 31°21' E 121°39'0 0.0
2017-Nov-15 04:58N 31°21' E 121°39'0 0.0
2017-Nov-15 04:28N 31°21' E 121°39'0 0.0
2017-Nov-15 03:58N 31°21' E 121°39'0 0.0
2017-Nov-15 03:28N 31°21' E 121°39'0 0.0
2017-Nov-15 02:58N 31°21' E 121°39'0 0.0
2017-Nov-15 02:28N 31°21' E 121°39'0 0.0
2017-Nov-15 01:55N 31°21' E 121°39'0 0.0
2017-Nov-15 01:28N 31°21' E 121°39'0 0.0
2017-Nov-15 00:58N 31°21' E 121°39'0 0.0
2017-Nov-15 00:28N 31°21' E 121°39'0 0.0
2017-Nov-14 23:58N 31°21' E 121°39'0 0.0
2017-Nov-14 23:28N 31°21' E 121°39'0 0.0
2017-Nov-14 22:58N 31°21' E 121°39'0 0.0
2017-Nov-14 22:28N 31°21' E 121°39'0 0.0
2017-Nov-14 21:58N 31°21' E 121°39'0 0.0
2017-Nov-14 21:28N 31°21' E 121°39'0 0.0
2017-Nov-14 20:55N 31°21' E 121°39'0 0.0
2017-Nov-14 20:28N 31°21' E 121°39'0 0.0
2017-Nov-14 19:58N 31°21' E 121°39'0 0.0
2017-Nov-14 19:28N 31°21' E 121°39'0 0.0
2017-Nov-14 18:58N 31°21' E 121°39'0 0.0
2017-Nov-14 18:28N 31°21' E 121°39'0 0.0
2017-Nov-14 17:58N 31°21' E 121°39'0 0.0
2017-Nov-14 17:25N 31°21' E 121°39'0 0.0
2017-Nov-14 16:58N 31°21' E 121°39'0 0.0
2017-Nov-14 16:28N 31°21' E 121°39'0 0.0
2017-Nov-14 15:58N 31°21' E 121°39'0 0.0
2017-Nov-14 15:28N 31°21' E 121°39'0 0.0
2017-Nov-14 14:58N 31°21' E 121°39'0 0.0
2017-Nov-14 14:28N 31°21' E 121°39'0 0.3
2017-Nov-14 14:00N 31°21' E 121°39'1 1.5
2017-Nov-14 13:30N 31°21' E 121°39'5 9.2
2017-Nov-14 13:00N 31°19' E 121°44'510.6
2017-Nov-14 12:30N 31°17' E 121°49'612.2
2017-Nov-14 12:01N 31°15' E 121°56'612.6
2017-Nov-14 11:30N 31°14' E 122°03'611.2
2017-Nov-14 11:00N 31°12' E 122°09'7 9.2
2017-Nov-14 10:12N 31°07' E 122°16'312.1
2017-Nov-14 09:59N 31°06' E 122°19'45310.4
2017-Nov-12 14:33N 24°18' E 118°36'115.7
2017-Nov-12 14:30N 24°18' E 118°35'815.9
2017-Nov-12 14:00N 24°14' E 118°27'815.8
2017-Nov-12 13:30N 24°10' E 118°20'815.3
2017-Nov-12 13:00N 24°05' E 118°14'20214.8
2017-Nov-11 23:19N 22°14' E 115°10'915.0
2017-Nov-11 22:42N 22°11' E 115°00'315.1
2017-Nov-11 22:30N 22°10' E 114°57'714.9
2017-Nov-11 22:00N 22°08' E 114°50'814.8
2017-Nov-11 21:30N 22°05' E 114°42'814.7
2017-Nov-11 20:59N 22°03' E 114°34'714.9
2017-Nov-11 20:30N 21°60' E 114°27'1914.2
2017-Nov-11 19:09N 21°57' E 114°07'216.2
2017-Nov-11 19:00N 21°59' E 114°05'815.6
2017-Nov-11 18:30N 22°05' E 113°60'816.1
2017-Nov-11 18:00N 22°09' E 113°53'714.9
2017-Nov-11 17:30N 22°15' E 113°49'713.7
2017-Nov-11 17:00N 22°22' E 113°47'713.5
2017-Nov-11 16:31N 22°29' E 113°45'714.5
2017-Nov-11 16:00N 22°36' E 113°43'612.8
2017-Nov-11 15:30N 22°42' E 113°41'510.4
2017-Nov-11 15:00N 22°46' E 113°38'5 9.8
2017-Nov-11 14:30N 22°50' E 113°35'3 5.1
2017-Nov-11 14:00N 22°52' E 113°33'0 0.0
2017-Nov-11 13:30N 22°52' E 113°33'0 0.0
2017-Nov-11 13:00N 22°52' E 113°33'0 0.0
2017-Nov-11 12:30N 22°52' E 113°33'0 0.0
2017-Nov-11 11:59N 22°52' E 113°33'0 0.0
2017-Nov-11 11:30N 22°52' E 113°33'0 0.0
2017-Nov-11 10:59N 22°52' E 113°33'0 0.0
2017-Nov-11 10:29N 22°52' E 113°33'0 0.0
2017-Nov-11 10:00N 22°52' E 113°33'0 0.0
2017-Nov-11 09:29N 22°52' E 113°33'0 0.0
2017-Nov-11 09:00N 22°52' E 113°33'0 0.0
2017-Nov-11 08:30N 22°52' E 113°33'0 0.0
2017-Nov-11 07:59N 22°52' E 113°33'0 0.0
2017-Nov-11 07:30N 22°52' E 113°33'0 0.0
2017-Nov-11 07:00N 22°52' E 113°33'0 0.0
2017-Nov-11 06:30N 22°52' E 113°33'0 0.0
2017-Nov-11 05:59N 22°52' E 113°33'0 0.0
2017-Nov-11 05:30N 22°52' E 113°33'0 0.0
2017-Nov-11 04:59N 22°52' E 113°33'0 0.0
2017-Nov-11 04:30N 22°52' E 113°33'0 0.0
2017-Nov-11 03:59N 22°52' E 113°33'0 0.0
2017-Nov-11 03:29N 22°52' E 113°33'0 0.0
2017-Nov-11 02:59N 22°52' E 113°33'0 0.0
2017-Nov-11 02:29N 22°52' E 113°33'0 0.0
2017-Nov-11 01:59N 22°52' E 113°33'0 0.0
2017-Nov-11 01:29N 22°52' E 113°33'0 0.0
2017-Nov-11 00:59N 22°52' E 113°33'0 0.0
2017-Nov-11 00:29N 22°52' E 113°33'0 0.0
2017-Nov-10 23:59N 22°52' E 113°33'0 0.0
2017-Nov-10 23:29N 22°52' E 113°33'0 0.0
2017-Nov-10 22:59N 22°52' E 113°33'0 0.0
2017-Nov-10 22:30N 22°52' E 113°33'0 0.0
2017-Nov-10 21:59N 22°52' E 113°33'0 0.0
2017-Nov-10 21:29N 22°52' E 113°33'0 0.0
2017-Nov-10 20:59N 22°52' E 113°33'0 0.0
2017-Nov-10 20:29N 22°52' E 113°33'0 0.0
2017-Nov-10 19:59N 22°52' E 113°33'0 0.0
2017-Nov-10 19:29N 22°52' E 113°33'0 0.0
2017-Nov-10 18:59N 22°52' E 113°33'0 0.0
2017-Nov-10 18:29N 22°52' E 113°33'0 0.0
2017-Nov-10 17:59N 22°52' E 113°33'0 0.0
2017-Nov-10 17:29N 22°52' E 113°33'0 0.0
2017-Nov-10 16:59N 22°52' E 113°33'0 0.0
2017-Nov-10 16:29N 22°52' E 113°33'0 0.0
2017-Nov-10 15:59N 22°52' E 113°33'0 0.0
2017-Nov-10 15:29N 22°52' E 113°33'0 0.0
2017-Nov-10 14:59N 22°52' E 113°33'0 0.0
2017-Nov-10 14:29N 22°52' E 113°33'0 0.0
2017-Nov-10 13:59N 22°52' E 113°33'0 0.0
2017-Nov-10 13:29N 22°52' E 113°33'0 0.0
2017-Nov-10 12:59N 22°52' E 113°33'0 0.0
2017-Nov-10 12:29N 22°52' E 113°33'0 0.0
2017-Nov-10 11:59N 22°52' E 113°33'0 0.0
2017-Nov-10 11:29N 22°52' E 113°33'0 0.0
2017-Nov-10 11:00N 22°52' E 113°33'0 0.0
2017-Nov-10 10:23N 22°52' E 113°33'0 0.0
2017-Nov-10 09:59N 22°52' E 113°33'0 0.0
2017-Nov-10 09:29N 22°52' E 113°33'0 0.0
2017-Nov-10 08:59N 22°52' E 113°33'0 0.0
2017-Nov-10 08:29N 22°52' E 113°33'0 0.0
2017-Nov-10 07:59N 22°52' E 113°33'0 0.0
2017-Nov-10 07:29N 22°52' E 113°33'0 0.0
2017-Nov-10 06:59N 22°52' E 113°33'0 0.0
2017-Nov-10 06:29N 22°52' E 113°33'0 0.0
2017-Nov-10 05:59N 22°52' E 113°33'0 0.0
2017-Nov-10 05:29N 22°52' E 113°33'0 0.0
2017-Nov-10 04:59N 22°52' E 113°33'0 0.0
2017-Nov-10 04:29N 22°52' E 113°33'0 0.0
2017-Nov-10 03:59N 22°52' E 113°33'0 0.0
2017-Nov-10 03:29N 22°52' E 113°33'0 0.0
2017-Nov-10 02:59N 22°52' E 113°33'0 0.0
2017-Nov-10 02:29N 22°52' E 113°33'0 0.0
2017-Nov-10 01:59N 22°52' E 113°33'0 0.0
2017-Nov-10 01:29N 22°52' E 113°33'0 0.0
2017-Nov-10 00:59N 22°52' E 113°33'0 0.0
2017-Nov-10 00:29N 22°52' E 113°33'0 0.0
2017-Nov-09 23:59N 22°52' E 113°33'0 0.0
2017-Nov-09 23:29N 22°52' E 113°33'0 0.0
2017-Nov-09 22:59N 22°52' E 113°33'0 0.0
2017-Nov-09 22:29N 22°52' E 113°33'0 0.0
2017-Nov-09 21:59N 22°52' E 113°33'0 0.0
2017-Nov-09 21:29N 22°52' E 113°33'0 0.0
2017-Nov-09 20:59N 22°52' E 113°33'0 0.0
2017-Nov-09 20:29N 22°52' E 113°33'0 0.0
2017-Nov-09 19:59N 22°52' E 113°33'0 0.0
2017-Nov-09 19:29N 22°52' E 113°33'0 0.0
2017-Nov-09 18:59N 22°52' E 113°33'0 0.0
2017-Nov-09 18:29N 22°52' E 113°33'0 0.0
2017-Nov-09 17:59N 22°52' E 113°33'0 0.0
2017-Nov-09 17:29N 22°52' E 113°33'0 0.0
2017-Nov-09 16:59N 22°52' E 113°33'0 0.3
2017-Nov-09 16:30N 22°52' E 113°33'1 1.8
2017-Nov-09 16:00N 22°52' E 113°34'1 2.6
2017-Nov-09 15:28N 22°53' E 113°35'1 2.4
2017-Nov-09 15:00N 22°54' E 113°35'0 0.0
2017-Nov-09 14:24N 22°54' E 113°35'0 0.0
2017-Nov-09 13:57N 22°54' E 113°35'0 0.0
2017-Nov-09 13:30N 22°54' E 113°35'0 0.0
2017-Nov-09 13:00N 22°54' E 113°35'0 0.0
2017-Nov-09 12:30N 22°54' E 113°35'0 0.0
2017-Nov-09 12:00N 22°54' E 113°35'2 3.1
2017-Nov-09 11:30N 22°53' E 113°34'4 7.3
2017-Nov-09 11:00N 22°50' E 113°35'5 9.8
2017-Nov-09 10:30N 22°46' E 113°38'510.3
2017-Nov-09 10:00N 22°41' E 113°41'612.5
2017-Nov-09 09:30N 22°35' E 113°43'714.4
2017-Nov-09 09:00N 22°28' E 113°45'611.3
2017-Nov-09 08:31N 22°23' E 113°47'714.4
2017-Nov-09 08:01N 22°16' E 113°49'815.3
2017-Nov-09 07:30N 22°09' E 113°53'714.1
2017-Nov-09 07:00N 22°05' E 113°59'0 0.1
2017-Nov-09 04:01N 22°05' E 113°59'0 0.0
2017-Nov-09 03:43N 22°05' E 113°59'0 0.0
2017-Nov-09 00:43N 22°05' E 113°59'0 0.1
2017-Nov-09 00:13N 22°05' E 113°59'0 0.1
2017-Nov-08 23:40N 22°05' E 113°59'0 0.1
2017-Nov-08 23:25N 22°05' E 113°59'0 0.0
2017-Nov-08 22:49N 22°05' E 113°59'0 0.1
2017-Nov-08 22:19N 22°05' E 113°59'0 0.1
2017-Nov-08 21:58N 22°05' E 113°59'0 0.0
2017-Nov-08 20:37N 22°05' E 113°59'0 0.1
2017-Nov-08 19:35N 22°05' E 113°59'0 0.2
2017-Nov-08 19:30N 22°05' E 113°59'0 0.0
2017-Nov-08 18:59N 22°05' E 113°59'0 0.1
2017-Nov-08 18:30N 22°05' E 113°59'0 0.1
2017-Nov-08 18:00N 22°05' E 113°59'0 0.1
2017-Nov-08 17:31N 22°05' E 113°59'0 0.2
2017-Nov-08 17:00N 22°05' E 113°59'0 0.4
2017-Nov-08 16:30N 22°05' E 113°59'4 8.6
2017-Nov-08 15:59N 22°02' E 114°03'714.8
2017-Nov-08 15:30N 21°57' E 114°07'  

Dump ship's entire track history